Terminal Aerodrome Forecast
Issued by NWS

Home | Current Version | Previous Version | Text Only | Print | Product List | Glossary On
Versions: 1 2 3 4 5 6 7 8 9 10 11 12 13 14 15 16 17 18 19 20 21 22 23 24 25
000
FTUS43 KDLH 242300
TAFBRD
TAF
KBRD 242326Z 2500/2524 15007KT P6SM SCT025 BKN060
      TEMPO 2500/2501 5SM TSRA BKN025CB
     FM250200 17006KT P6SM SCT050
     FM250500 24004KT P6SM SCT050
     FM251400 24011KT P6SM SCT050
     FM251700 25013G19KT P6SM SCT030
      TEMPO 2520/2524 BKN035=

USA.gov is the U.S. government's official web portal to all federal, state and local government web resources and services.